Time;durP1;ratioP1;P1;durP2;ratioP2;P2;SDS_P1;SDS_P2;PMS_P1;PMS_P2;Temp;Humidity;BMP_temperature;BMP_pressure;BME280_temperature;BME280_humidity;BME280_pressure;Samples;Min_cycle;Max_cycle;Signal;HPM_P1;HPM_P2
2022/01/18 00:01:35;;;;;;;17.42;8.15;;;;;;;2.28;89.76;99191.81;5032476;28;20047;-59
2022/01/18 00:04:02;;;;;;;17.85;8.38;;;;;;;2.31;89.21;99190.66;5024651;28;20071;-59
2022/01/18 00:06:29;;;;;;;16.85;8.27;;;;;;;2.34;89.36;99198.38;5026115;28;20048;-59
2022/01/18 00:08:56;;;;;;;13.95;7.95;;;;;;;2.34;89.42;99193.88;5025916;28;20045;-60
2022/01/18 00:11:25;;;;;;;17.90;8.75;;;;;;;2.37;89.21;99187.38;5011241;28;20045;-60
2022/01/18 00:13:59;;;;;;;15.60;7.95;;;;;;;2.38;89.27;99194.41;5024977;28;20045;-57
2022/01/18 00:16:36;;;;;;;18.80;8.40;;;;;;;2.42;88.88;99195.78;5025575;28;20099;-59
2022/01/18 00:19:08;;;;;;;14.95;8.35;;;;;;;2.42;89.28;99189.56;5024758;28;20054;-61
2022/01/18 00:24:17;;;;;;;13.48;7.20;;;;;;;2.40;89.15;99204.94;5025767;28;20497;-60
2022/01/18 00:26:44;;;;;;;15.43;8.50;;;;;;;2.43;89.13;99205.47;5025398;28;20505;-61
2022/01/18 00:29:15;;;;;;;16.60;8.00;;;;;;;2.45;88.63;99200.81;5026201;28;20424;-60
2022/01/18 00:32:03;;;;;;;14.35;7.85;;;;;;;2.48;88.86;99205.00;5023816;28;20045;-60
2022/01/18 00:34:34;;;;;;;13.60;7.30;;;;;;;2.53;88.38;99202.72;5018138;28;20056;-60
2022/01/18 00:39:40;;;;;;;13.25;7.20;;;;;;;2.51;88.48;99211.88;5025462;28;20509;-60
2022/01/18 00:42:09;;;;;;;14.40;7.35;;;;;;;2.54;88.53;99217.75;5024697;28;20056;-60
2022/01/18 00:44:36;;;;;;;12.10;7.00;;;;;;;2.59;88.32;99223.47;5026489;28;20791;-60
2022/01/18 00:47:04;;;;;;;15.50;7.45;;;;;;;2.58;87.87;99215.63;5025375;28;20300;-60
2022/01/18 00:49:32;;;;;;;14.18;7.90;;;;;;;2.46;88.75;99223.03;5026026;28;20045;-60
2022/01/18 00:52:03;;;;;;;15.57;8.73;;;;;;;2.49;88.60;99219.22;5024633;28;20041;-60
2022/01/18 00:54:39;;;;;;;15.05;7.65;;;;;;;2.55;88.37;99226.63;5025700;28;20133;-60
2022/01/18 00:57:06;;;;;;;14.05;7.43;;;;;;;2.50;88.50;99221.72;5024867;28;20045;-60
2022/01/18 00:59:33;;;;;;;15.43;8.35;;;;;;;2.53;88.48;99225.94;5027911;28;20575;-60
2022/01/18 01:02:00;;;;;;;18.27;8.57;;;;;;;2.51;88.48;99226.06;5025341;28;20049;-60
2022/01/18 01:04:31;;;;;;;16.60;8.90;;;;;;;2.49;88.50;99219.22;5025406;28;20045;-59
2022/01/18 01:06:57;;;;;;;17.60;8.77;;;;;;;2.52;88.61;99230.47;5024407;28;20536;-59
2022/01/18 01:09:24;;;;;;;16.77;8.82;;;;;;;2.60;88.27;99227.00;5025371;28;20052;-60
2022/01/18 01:11:51;;;;;;;16.88;8.75;;;;;;;2.61;88.21;99226.00;5023888;28;20065;-60
2022/01/18 01:14:22;;;;;;;14.80;8.15;;;;;;;2.61;88.50;99231.34;5025664;28;20079;-59
2022/01/18 01:46:29;;;;;;;16.52;8.35;;;;;;;2.51;88.31;99249.31;5024154;28;20668;-61
2022/01/18 01:48:58;;;;;;;17.15;9.30;;;;;;;2.52;88.34;99241.16;5025255;28;20052;-60
2022/01/18 01:51:30;;;;;;;17.10;9.25;;;;;;;2.57;87.87;99246.03;5026428;28;20516;-60
2022/01/18 01:54:02;;;;;;;17.50;9.30;;;;;;;2.53;87.78;99250.00;5028114;28;20116;-60
2022/01/18 01:56:31;;;;;;;16.05;8.57;;;;;;;2.51;88.14;99252.81;5027865;28;20053;-60
2022/01/18 01:58:58;;;;;;;18.05;9.63;;;;;;;2.55;88.24;99256.88;5036424;28;20041;-60
2022/01/18 02:01:25;;;;;;;16.92;8.82;;;;;;;2.55;88.53;99258.72;5036634;28;20042;-60
2022/01/18 02:03:52;;;;;;;18.65;9.32;;;;;;;2.54;88.15;99251.69;5026907;28;20072;-60
2022/01/18 02:06:21;;;;;;;17.65;10.13;;;;;;;2.55;87.84;99256.88;5027078;28;20132;-60
2022/01/18 02:08:48;;;;;;;17.77;9.85;;;;;;;2.57;87.68;99254.91;5028439;28;20045;-60
2022/01/18 02:11:15;;;;;;;16.88;8.85;;;;;;;2.64;87.87;99251.59;5028276;28;20046;-60
2022/01/18 02:13:42;;;;;;;16.92;8.32;;;;;;;2.56;87.76;99247.03;5026997;28;20111;-60
2022/01/18 02:16:18;;;;;;;19.10;8.95;;;;;;;2.55;88.41;99242.69;5027219;28;20087;-60
2022/01/18 02:21:46;;;;;;;17.42;9.50;;;;;;;2.56;88.34;99245.19;5027045;28;20048;-59
2022/01/18 02:24:15;;;;;;;19.80;9.25;;;;;;;2.57;88.41;99246.03;5027291;28;20524;-59
2022/01/18 02:26:42;;;;;;;17.63;9.80;;;;;;;2.61;88.15;99244.72;5026813;28;20049;-60
2022/01/18 02:29:10;;;;;;;17.75;9.25;;;;;;;2.62;87.77;99251.78;5028034;28;20056;-59
2022/01/18 02:31:38;;;;;;;18.23;9.70;;;;;;;2.64;87.38;99252.44;5027291;28;20528;-59
2022/01/18 02:34:08;;;;;;;18.38;9.93;;;;;;;2.56;87.61;99247.03;5027463;28;20069;-60
2022/01/18 02:36:35;;;;;;;15.38;9.50;;;;;;;2.47;88.01;99254.16;5027658;28;20052;-60
2022/01/18 02:39:03;;;;;;;18.38;9.63;;;;;;;2.49;88.76;99253.97;5033166;28;20053;-60
2022/01/18 02:41:31;;;;;;;20.20;9.50;;;;;;;2.49;88.69;99251.28;5024744;28;20053;-60
2022/01/18 02:44:18;;;;;;;19.50;9.07;;;;;;;2.56;88.06;99249.69;5027800;28;20075;-60
2022/01/18 02:46:45;;;;;;;17.23;8.77;;;;;;;2.45;88.51;99258.78;5037221;28;20517;-60
2022/01/18 02:49:12;;;;;;;18.02;9.35;;;;;;;2.53;88.33;99250.84;5023131;28;20045;-60
2022/01/18 02:51:39;;;;;;;19.85;9.32;;;;;;;2.57;88.26;99254.03;5022498;28;20053;-60
2022/01/18 02:54:09;;;;;;;18.75;9.02;;;;;;;2.55;88.02;99253.38;5026785;28;20041;-60
2022/01/18 02:56:40;;;;;;;17.02;9.32;;;;;;;2.57;88.35;99254.03;5026828;28;20489;-60
2022/01/18 03:04:22;;;;;;;21.23;9.77;;;;;;;2.65;88.36;99251.44;5025402;28;20445;-60
2022/01/18 03:06:49;;;;;;;21.33;9.88;;;;;;;2.64;88.08;99249.78;5025500;28;20212;-60
2022/01/18 03:09:16;;;;;;;17.58;9.20;;;;;;;2.78;87.42;99247.53;5027281;28;20054;-60
2022/01/18 03:11:43;;;;;;;16.27;8.45;;;;;;;2.71;87.09;99256.19;5026634;28;20037;-60
2022/01/18 03:14:10;;;;;;;16.85;9.18;;;;;;;2.70;87.15;99249.13;5026042;28;20069;-60
2022/01/18 03:16:37;;;;;;;16.73;9.27;;;;;;;2.95;86.12;99249.34;5027087;28;20121;-61
2022/01/18 03:19:04;;;;;;;17.08;8.73;;;;;;;2.84;86.40;99246.94;5026406;28;20051;-61
2022/01/18 03:21:30;;;;;;;17.60;9.02;;;;;;;2.73;87.21;99251.50;5022765;28;20046;-60
2022/01/18 03:24:13;;;;;;;22.48;9.77;;;;;;;2.69;87.49;99250.16;5027184;28;20047;-60
2022/01/18 03:29:26;;;;;;;19.20;10.13;;;;;;;2.61;87.92;99258.09;5027108;28;20045;-60
2022/01/18 03:31:53;;;;;;;15.30;8.73;;;;;;;2.46;87.69;99249.78;5026888;28;20045;-60
2022/01/18 03:34:20;;;;;;;18.17;10.80;;;;;;;2.32;88.62;99251.16;5026924;28;20520;-59
2022/01/18 03:36:47;;;;;;;22.52;10.75;;;;;;;2.30;89.91;99250.47;5026692;28;20046;-59
2022/01/18 03:39:13;;;;;;;25.73;11.82;;;;;;;2.29;89.09;99249.59;5025882;28;20049;-59
2022/01/18 03:41:41;;;;;;;20.65;10.73;;;;;;;2.24;89.37;99248.41;5025833;28;20120;-60
2022/01/18 03:44:07;;;;;;;22.90;11.70;;;;;;;2.17;89.84;99245.47;5025425;28;20042;-59
2022/01/18 03:46:36;;;;;;;25.35;12.73;;;;;;;2.18;89.84;99247.19;5025803;28;20052;-60
2022/01/18 03:49:04;;;;;;;27.00;13.85;;;;;;;2.14;90.21;99245.78;5026327;28;20520;-60
2022/01/18 03:51:32;;;;;;;23.20;11.95;;;;;;;2.21;89.90;99244.19;5024755;28;20045;-58
2022/01/18 03:53:59;;;;;;;23.67;12.63;;;;;;;2.22;89.45;99253.91;5026014;28;20041;-62
2022/01/18 03:56:25;;;;;;;23.13;11.45;;;;;;;2.27;90.12;99261.44;5025167;28;20046;-59
2022/01/18 03:58:52;;;;;;;18.77;10.70;;;;;;;2.38;90.07;99260.38;5042460;28;20728;-59
2022/01/18 04:01:19;;;;;;;19.80;10.65;;;;;;;2.45;89.53;99265.00;5038831;28;20041;-60
2022/01/18 04:03:51;;;;;;;22.02;11.75;;;;;;;2.46;88.81;99263.13;5025248;28;20052;-59
2022/01/18 04:06:18;;;;;;;20.95;10.95;;;;;;;2.43;88.52;99260.78;5025854;28;20092;-61
2022/01/18 04:08:44;;;;;;;21.73;10.82;;;;;;;2.38;88.52;99263.91;5025881;28;20041;-60
2022/01/18 04:11:11;;;;;;;23.85;11.20;;;;;;;2.27;89.39;99261.44;5026283;28;20525;-61
2022/01/18 04:13:37;;;;;;;21.83;10.68;;;;;;;2.28;89.46;99272.00;5024359;28;20065;-60
2022/01/18 04:16:04;;;;;;;20.00;9.82;;;;;;;2.25;88.93;99269.63;5024477;28;20045;-60
2022/01/18 04:18:59;;;;;;;29.40;12.40;;;;;;;2.31;89.34;99269.03;5025947;28;20128;-61
2022/01/18 04:29:15;;;;;;;18.65;10.70;;;;;;;2.28;89.18;99271.16;5027771;28;20492;-60
2022/01/18 04:31:42;;;;;;;23.55;12.13;;;;;;;2.25;89.63;99268.78;5025480;28;20053;-60
2022/01/18 04:34:08;;;;;;;20.92;10.55;;;;;;;2.28;89.46;99276.53;5026102;28;20038;-60
2022/01/18 04:36:36;;;;;;;20.10;10.20;;;;;;;2.29;89.03;99272.84;5025118;28;20526;-60
2022/01/18 04:39:03;;;;;;;22.30;10.98;;;;;;;2.28;89.34;99268.50;5025156;28;20426;-61
2022/01/18 04:41:31;;;;;;;19.17;9.65;;;;;;;2.28;88.95;99277.34;5024218;28;20575;-59
2022/01/18 04:49:14;;;;;;;24.65;10.90;;;;;;;2.38;89.17;99287.97;5025380;28;20076;-64
2022/01/18 04:51:41;;;;;;;22.73;11.93;;;;;;;2.39;88.97;99295.00;5024810;28;20050;-64
2022/01/18 04:54:10;;;;;;;22.40;11.60;;;;;;;2.40;88.53;99294.00;5025844;28;20030;-64
2022/01/18 04:59:09;;;;;;;22.70;11.20;;;;;;;2.53;88.64;99287.44;5021029;28;20033;-64
2022/01/18 05:01:39;;;;;;;22.70;11.15;;;;;;;2.48;87.85;99287.91;5020022;28;20096;-63
2022/01/18 05:04:06;;;;;;;27.05;11.20;;;;;;;2.45;88.68;99291.72;5018859;28;20030;-63
2022/01/18 05:06:34;;;;;;;23.25;11.80;;;;;;;2.36;87.97;99291.78;5014731;28;20042;-63
2022/01/18 05:09:08;;;;;;;22.38;10.98;;;;;;;2.34;88.14;99282.09;5016729;28;20033;-63
2022/01/18 05:11:47;;;;;;;25.17;11.65;;;;;;;2.30;88.54;99286.06;5016029;28;20041;-63
2022/01/18 05:14:48;;;;;;;26.90;11.80;;;;;;;2.29;88.82;99289.72;5019916;28;20033;-63
2022/01/18 05:17:20;;;;;;;22.85;11.40;;;;;;;2.30;89.21;99288.75;5014639;28;20107;-63
2022/01/18 05:25:18;;;;;;;23.42;10.75;;;;;;;2.19;88.46;99289.78;5018099;28;20033;-63
2022/01/18 05:27:45;;;;;;;29.67;12.32;;;;;;;2.06;89.01;99291.97;5018184;28;20045;-63
2022/01/18 05:30:12;;;;;;;24.95;11.65;;;;;;;1.74;90.08;99290.59;5019919;28;20060;-63
2022/01/18 05:32:38;;;;;;;27.75;12.55;;;;;;;1.74;91.33;99293.25;5024210;28;20049;-63
2022/01/18 05:35:05;;;;;;;28.40;11.35;;;;;;;1.78;90.96;99292.81;5028610;28;20416;-63
2022/01/18 05:37:32;;;;;;;26.15;12.15;;;;;;;1.85;91.30;99298.41;5024143;28;20041;-63
2022/01/18 05:39:58;;;;;;;27.25;12.48;;;;;;;1.88;90.49;99290.09;5029159;28;20056;-63
2022/01/18 05:42:25;;;;;;;23.75;11.57;;;;;;;1.91;90.61;99294.28;5025881;28;20046;-63
2022/01/18 05:44:52;;;;;;;24.50;11.52;;;;;;;1.93;90.22;99293.16;5028637;28;20041;-63
2022/01/18 05:47:20;;;;;;;25.77;11.80;;;;;;;1.99;90.36;99299.72;5028137;28;20042;-63
2022/01/18 05:49:46;;;;;;;27.45;12.20;;;;;;;2.03;90.18;99292.28;5027394;28;20416;-63
2022/01/18 05:52:13;;;;;;;25.30;11.70;;;;;;;2.06;89.92;99286.59;5027905;28;20564;-63
2022/01/18 05:54:39;;;;;;;23.38;11.50;;;;;;;2.03;89.79;99289.59;5028544;28;20574;-63
2022/01/18 05:57:06;;;;;;;22.30;10.18;;;;;;;2.06;89.46;99297.31;5027981;28;20057;-63
2022/01/18 05:59:38;;;;;;;19.95;10.18;;;;;;;1.95;88.68;99290.31;5031464;28;20041;-63
2022/01/18 06:02:30;;;;;;;;;;;;;;;1.69;90.07;99299.03;5025349;28;20048;-63
2022/01/18 06:07:43;;;;;;;25.83;11.07;;;;;;;1.79;90.23;99291.81;5029250;28;20041;-63
2022/01/18 06:10:10;;;;;;;22.33;10.15;;;;;;;1.69;90.18;99278.50;5030351;28;20102;-63
2022/01/18 06:12:39;;;;;;;28.02;11.45;;;;;;;1.52;90.86;99297.97;5031023;28;20520;-63
2022/01/18 06:15:06;;;;;;;19.90;9.75;;;;;;;1.48;91.30;99300.09;5041590;28;20044;-63
2022/01/18 06:17:33;;;;;;;27.73;12.23;;;;;;;1.60;91.72;99298.09;5046026;28;20540;-63
2022/01/18 06:20:00;;;;;;;26.08;13.02;;;;;;;1.72;91.87;99306.75;5032914;28;20049;-63
2022/01/18 06:22:26;;;;;;;27.35;13.07;;;;;;;1.75;91.39;99303.78;5024126;28;20546;-63
2022/01/18 06:24:53;;;;;;;27.33;12.63;;;;;;;1.78;90.89;99303.50;5034988;28;20424;-63
2022/01/18 06:27:19;;;;;;;29.38;14.60;;;;;;;1.81;90.75;99305.03;5040823;28;20049;-63
2022/01/18 06:29:46;;;;;;;23.80;11.93;;;;;;;1.77;90.30;99304.47;5046209;28;20063;-64
2022/01/18 06:32:13;;;;;;;23.95;11.00;;;;;;;1.62;89.77;99308.63;5034074;28;20049;-63
2022/01/18 06:34:39;;;;;;;18.65;9.43;;;;;;;1.64;90.18;99314.66;5027408;28;20074;-63
2022/01/18 06:37:07;;;;;;;18.45;9.40;;;;;;;1.59;90.46;99320.44;5023098;28;20051;-63
2022/01/18 06:39:34;;;;;;;25.48;11.35;;;;;;;1.69;91.23;99321.25;5028050;28;20045;-63
2022/01/18 06:42:06;;;;;;;28.35;14.13;;;;;;;1.76;90.97;99321.50;5024589;28;20080;-63
2022/01/18 06:44:33;;;;;;;29.25;15.38;;;;;;;1.83;90.78;99321.75;5025129;28;20531;-63
2022/01/18 06:46:59;;;;;;;24.40;12.68;;;;;;;1.83;89.96;99324.41;5025099;28;20052;-63
2022/01/18 06:49:26;;;;;;;23.67;11.93;;;;;;;1.77;90.19;99333.03;5025520;28;20071;-64
2022/01/18 06:51:52;;;;;;;20.00;11.75;;;;;;;1.62;89.76;99335.34;5019617;28;20056;-63
2022/01/18 06:54:19;;;;;;;31.38;12.30;;;;;;;1.58;90.56;99332.09;5020944;28;20405;-64
2022/01/18 06:56:49;;;;;;;24.45;12.60;;;;;;;1.63;90.96;99337.00;5024155;28;20504;-64
2022/01/18 06:59:16;;;;;;;25.85;13.13;;;;;;;1.70;90.83;99338.13;5019813;28;20521;-63
2022/01/18 07:01:43;;;;;;;26.33;12.38;;;;;;;1.81;91.80;99337.09;5018438;28;20049;-63
2022/01/18 07:04:10;;;;;;;31.23;15.40;;;;;;;1.83;90.58;99348.47;5015675;28;21403;-64
2022/01/18 07:06:36;;;;;;;31.67;15.23;;;;;;;1.81;90.52;99339.75;5027861;28;20049;-64
2022/01/18 07:09:03;;;;;;;28.33;13.40;;;;;;;1.79;89.87;99349.75;5037012;28;20053;-63
2022/01/18 07:11:30;;;;;;;28.90;14.60;;;;;;;1.76;90.36;99344.69;5025589;28;20045;-63
2022/01/18 07:13:56;;;;;;;24.63;12.52;;;;;;;1.80;89.72;99348.75;5024225;28;20037;-63
2022/01/18 07:16:23;;;;;;;26.13;13.55;;;;;;;1.83;90.39;99361.00;5024256;28;20044;-64
2022/01/18 07:18:50;;;;;;;33.28;15.00;;;;;;;1.90;90.22;99367.41;5024627;28;20053;-63
2022/01/18 07:21:16;;;;;;;30.20;13.75;;;;;;;2.03;90.28;99369.78;5024129;28;20050;-63
2022/01/18 07:23:43;;;;;;;35.13;16.05;;;;;;;2.06;90.03;99369.44;5023482;28;20050;-64
2022/01/18 07:26:09;;;;;;;30.73;15.70;;;;;;;2.07;89.86;99377.31;5025986;28;20050;-63
2022/01/18 07:28:36;;;;;;;26.92;14.85;;;;;;;2.08;90.70;99372.84;5024862;28;20124;-63
2022/01/18 07:31:03;;;;;;;37.03;17.33;;;;;;;2.03;89.92;99367.09;5022890;28;20404;-63
2022/01/18 07:33:30;;;;;;;30.95;16.13;;;;;;;2.11;90.07;99369.88;5027705;28;20041;-63
2022/01/18 07:35:56;;;;;;;28.27;13.02;;;;;;;2.12;88.94;99376.03;5023250;28;20113;-64
2022/01/18 07:38:23;;;;;;;26.23;14.02;;;;;;;1.98;89.82;99375.53;5023586;28;20111;-63
2022/01/18 07:40:50;;;;;;;26.75;13.10;;;;;;;2.05;89.74;99379.31;5026038;28;20233;-63
2022/01/18 07:43:18;;;;;;;27.15;12.07;;;;;;;2.13;89.09;99375.06;5025879;28;20079;-63
2022/01/18 07:45:47;;;;;;;28.45;13.30;;;;;;;1.99;89.68;99377.22;5025610;28;20079;-63
2022/01/18 07:48:15;;;;;;;23.00;12.70;;;;;;;2.02;89.87;99378.75;5023636;28;20128;-64
2022/01/18 07:50:42;;;;;;;30.20;14.60;;;;;;;2.12;90.57;99381.38;5006574;28;20046;-63
2022/01/18 07:53:10;;;;;;;32.92;15.52;;;;;;;2.23;90.26;99375.00;5022500;28;20050;-63
2022/01/18 07:55:36;;;;;;;31.75;16.13;;;;;;;2.20;89.79;99381.50;5021480;28;20033;-63
2022/01/18 07:58:03;;;;;;;29.70;16.98;;;;;;;2.16;89.92;99383.63;5023708;28;20053;-67
2022/01/18 08:00:30;;;;;;;32.53;16.50;;;;;;;2.13;89.88;99388.44;5030898;28;20047;-56
2022/01/18 08:02:57;;;;;;;43.03;18.05;;;;;;;2.15;89.97;99392.66;5020894;28;20463;-58
2022/01/18 08:05:24;;;;;;;31.42;16.23;;;;;;;2.22;90.23;99392.91;5020302;28;20046;-56
2022/01/18 08:07:50;;;;;;;32.28;15.80;;;;;;;2.16;89.94;99397.00;5021761;28;20695;-56
2022/01/18 08:10:18;;;;;;;32.35;17.25;;;;;;;2.21;90.24;99396.53;5023319;28;20050;-56
2022/01/18 08:12:46;;;;;;;31.60;16.13;;;;;;;2.25;90.31;99397.91;5027368;28;20051;-55
2022/01/18 08:15:22;;;;;;;28.88;15.60;;;;;;;2.23;89.87;99391.03;5025619;28;20049;-58
2022/01/18 08:17:52;;;;;;;33.45;16.85;;;;;;;2.27;89.87;99392.44;5023055;28;20049;-58
2022/01/18 08:20:20;;;;;;;33.25;17.13;;;;;;;2.28;90.16;99402.16;5021961;28;20129;-58
2022/01/18 08:22:46;;;;;;;35.78;17.35;;;;;;;2.37;89.48;99395.91;5025348;28;20099;-53
2022/01/18 08:25:15;;;;;;;36.83;17.05;;;;;;;2.44;89.42;99391.63;5024092;28;20041;-56
2022/01/18 08:27:43;;;;;;;35.17;17.20;;;;;;;2.40;89.21;99398.28;5026588;28;20041;-55
2022/01/18 08:30:11;;;;;;;33.13;16.42;;;;;;;2.43;89.18;99406.00;5030506;28;20449;-55
2022/01/18 08:32:38;;;;;;;164.63;69.85;;;;;;;2.59;90.18;99404.53;5017471;28;20041;-63
2022/01/18 08:35:06;;;;;;;65.63;29.20;;;;;;;2.66;88.40;99410.13;5023002;28;20525;-63
2022/01/18 08:37:32;;;;;;;39.53;17.77;;;;;;;2.67;88.05;99407.28;5038448;28;20080;-63
2022/01/18 08:39:59;;;;;;;52.58;27.48;;;;;;;2.77;88.01;99406.38;5021486;28;20041;-62
2022/01/18 08:42:25;;;;;;;42.63;22.05;;;;;;;2.87;87.89;99407.16;5018863;28;20049;-62
2022/01/18 08:44:53;;;;;;;27.00;13.73;;;;;;;2.92;86.51;99404.03;5022108;28;20125;-62
2022/01/18 08:47:19;;;;;;;25.38;14.35;;;;;;;2.97;87.25;99402.59;5019512;28;20541;-64
2022/01/18 08:49:46;;;;;;;23.65;11.45;;;;;;;2.96;85.77;99408.09;5030850;28;20045;-62
2022/01/18 08:52:13;;;;;;;24.65;10.75;;;;;;;2.97;85.99;99405.25;5017014;28;20053;-62
2022/01/18 08:54:42;;;;;;;24.83;11.40;;;;;;;3.04;85.03;99408.16;5022399;28;20045;-62
2022/01/18 08:57:14;;;;;;;21.65;10.80;;;;;;;3.08;85.02;99406.88;5024069;28;20456;-62
2022/01/18 08:59:42;;;;;;;17.23;9.57;;;;;;;3.07;83.34;99404.34;5018225;28;20050;-62
2022/01/18 09:02:11;;;;;;;17.95;8.30;;;;;;;3.17;84.26;99398.91;5027852;28;20069;-62
2022/01/18 09:04:38;;;;;;;21.35;9.82;;;;;;;3.27;83.81;99396.97;5024863;28;20048;-62
2022/01/18 09:07:08;;;;;;;23.17;11.38;;;;;;;3.36;83.44;99398.72;5026576;28;20052;-63
2022/01/18 09:09:40;;;;;;;19.15;9.48;;;;;;;3.39;83.30;99394.88;5006898;28;20106;-63
2022/01/18 09:12:08;;;;;;;;;;;;;;;3.53;82.85;99393.50;5026668;28;20060;-63
2022/01/18 09:14:35;;;;;;;18.13;8.82;;;;;;;3.31;82.35;99397.53;5026290;28;19921;-63
2022/01/18 09:17:01;;;;;;;19.95;8.48;;;;;;;3.29;82.89;99396.81;5026892;28;20041;-62
2022/01/18 09:19:28;;;;;;;21.42;10.60;;;;;;;3.37;82.58;99394.22;5025578;28;20045;-68
2022/01/18 09:21:55;;;;;;;17.58;8.45;;;;;;;3.32;82.15;99394.66;5026089;28;20103;-63
2022/01/18 09:24:22;;;;;;;20.15;9.85;;;;;;;3.34;82.81;99398.06;5026949;28;20632;-63
2022/01/18 09:26:48;;;;;;;20.08;10.55;;;;;;;3.39;81.65;99405.59;5025197;28;20041;-63
2022/01/18 09:29:15;;;;;;;23.80;10.35;;;;;;;3.47;81.91;99403.00;5027785;28;20564;-63
2022/01/18 09:31:42;;;;;;;22.83;10.45;;;;;;;3.41;82.14;99408.97;5023863;28;20103;-63
2022/01/18 09:34:08;;;;;;;19.70;9.02;;;;;;;3.54;81.80;99413.91;5024040;28;20556;-62
2022/01/18 09:36:35;;;;;;;19.25;9.82;;;;;;;3.56;81.93;99411.09;5028532;28;20091;-63
2022/01/18 09:39:04;;;;;;;25.30;12.85;;;;;;;3.60;82.05;99407.09;5033266;28;20050;-62
2022/01/18 09:41:37;;;;;;;18.23;9.57;;;;;;;3.61;81.43;99406.94;5026145;28;20109;-63
2022/01/18 09:44:05;;;;;;;19.80;9.93;;;;;;;3.57;82.49;99407.44;5028432;28;20049;-63
2022/01/18 09:46:32;;;;;;;21.70;11.57;;;;;;;3.71;82.19;99408.69;5024260;28;20128;-62
2022/01/18 09:49:00;;;;;;;21.00;9.65;;;;;;;3.57;82.16;99408.25;5024382;28;20056;-64
2022/01/18 09:51:28;;;;;;;24.88;11.52;;;;;;;3.66;83.40;99403.81;5026417;28;20041;-63
2022/01/18 09:53:56;;;;;;;22.67;11.25;;;;;;;3.71;81.35;99403.31;5028309;28;20497;-61
2022/01/18 09:56:24;;;;;;;27.70;13.63;;;;;;;3.77;81.74;99411.56;5027339;28;20045;-62
2022/01/18 09:58:51;;;;;;;21.85;10.82;;;;;;;3.80;82.00;99409.59;5022411;28;20441;-62
2022/01/18 10:01:19;;;;;;;19.17;10.40;;;;;;;3.80;82.59;99409.59;5027634;28;20117;-62
2022/01/18 10:03:46;;;;;;;22.30;10.13;;;;;;;4.05;80.26;99405.22;5021109;28;20042;-63
2022/01/18 10:06:17;;;;;;;19.15;10.18;;;;;;;4.01;81.27;99403.84;5024412;28;20041;-62
2022/01/18 10:08:49;;;;;;;18.97;9.57;;;;;;;3.97;80.57;99399.81;5032664;28;20053;-63
2022/01/18 10:11:18;;;;;;;21.83;9.55;;;;;;;3.82;80.20;99399.53;5028686;28;20292;-63
2022/01/18 10:13:46;;;;;;;19.23;8.35;;;;;;;3.87;81.14;99398.06;5024023;28;20053;-62
2022/01/18 10:16:21;;;;;;;14.80;8.10;;;;;;;3.81;80.53;99400.56;5019536;28;20065;-62
2022/01/18 10:18:49;;;;;;;16.65;7.70;;;;;;;3.81;80.52;99401.41;5027892;28;20637;-63
2022/01/18 10:21:31;;;;;;;16.25;7.80;;;;;;;3.94;80.21;99409.00;5029343;28;20053;-63
2022/01/18 10:24:22;;;;;;;17.05;8.80;;;;;;;3.94;79.75;99402.81;5024427;28;20466;-62
2022/01/18 10:26:51;;;;;;;15.05;8.85;;;;;;;3.94;80.40;99408.19;5023141;28;20045;-63
2022/01/18 10:29:26;;;;;;;17.02;8.88;;;;;;;4.25;79.94;99395.13;5024380;28;20037;-62
2022/01/18 10:34:44;;;;;;;20.55;8.95;;;;;;;4.16;79.29;99402.25;5021422;28;20052;-63
2022/01/18 10:37:12;;;;;;;18.80;8.35;;;;;;;4.22;79.04;99387.38;5025538;28;20087;-64
2022/01/18 10:39:42;;;;;;;18.13;7.93;;;;;;;4.48;79.01;99391.84;5024240;28;20421;-61
2022/01/18 10:42:19;;;;;;;16.63;7.20;;;;;;;4.54;77.69;99385.00;5029231;28;20523;-62
2022/01/18 10:44:57;;;;;;;13.38;7.43;;;;;;;4.58;77.87;99378.28;5024891;28;20045;-62
2022/01/18 10:47:26;;;;;;;16.48;7.93;;;;;;;4.43;78.37;99386.13;5025110;28;20644;-63
2022/01/18 10:49:53;;;;;;;18.17;7.75;;;;;;;4.38;79.28;99377.69;5024727;28;20052;-62
2022/01/18 10:52:22;;;;;;;13.95;7.47;;;;;;;4.32;78.33;99371.16;5023780;28;20041;-64
2022/01/18 10:54:51;;;;;;;17.10;8.25;;;;;;;4.34;79.10;99370.97;5026343;28;20049;-64
2022/01/18 10:57:19;;;;;;;17.00;7.82;;;;;;;4.33;79.05;99375.53;5025828;28;20034;-64
2022/01/18 10:59:46;;;;;;;16.65;7.22;;;;;;;4.14;78.20;99372.09;5039929;28;20049;-63
2022/01/18 11:02:17;;;;;;;14.77;7.18;;;;;;;4.19;78.72;99368.06;5023697;28;20528;-63
2022/01/18 11:04:48;;;;;;;16.30;7.95;;;;;;;4.09;78.95;99362.84;5026457;28;20064;-63
2022/01/18 11:07:18;;;;;;;16.08;7.60;;;;;;;4.02;79.53;99359.97;5031004;28;20692;-63
2022/01/18 11:09:46;;;;;;;19.15;8.25;;;;;;;4.21;79.09;99356.22;5025625;28;20049;-63
2022/01/18 11:12:13;;;;;;;16.13;8.60;;;;;;;4.30;78.70;99354.38;5031665;28;20045;-63
2022/01/18 11:14:48;;;;;;;19.05;8.95;;;;;;;4.11;78.40;99356.34;5034831;28;20424;-63
2022/01/18 11:17:24;;;;;;;14.75;7.55;;;;;;;4.34;77.31;99349.53;5024758;28;20552;-63
2022/01/18 11:19:55;;;;;;;14.68;6.97;;;;;;;4.40;76.60;99340.84;5030877;28;20052;-64
2022/01/18 11:22:24;;;;;;;14.77;7.70;;;;;;;4.07;77.76;99344.25;5017495;28;20136;-63
2022/01/18 11:24:58;;;;;;;14.20;8.00;;;;;;;3.98;78.13;99340.69;5019028;28;20045;-64
2022/01/18 11:27:28;;;;;;;17.60;7.35;;;;;;;4.15;76.62;99343.44;5026604;28;20049;-64
2022/01/18 11:29:55;;;;;;;20.65;10.35;;;;;;;3.88;77.85;99345.31;5024108;28;20055;-63
2022/01/18 11:32:27;;;;;;;15.23;6.65;;;;;;;4.05;77.32;99343.56;5029169;28;20045;-63
2022/01/18 11:35:12;;;;;;;13.32;7.28;;;;;;;4.14;78.11;99339.06;5024525;28;20053;-61
2022/01/18 11:38:04;;;;;;;21.27;9.45;;;;;;;3.87;78.66;99344.47;5026934;28;20452;-62
2022/01/18 11:40:53;;;;;;;14.75;7.43;;;;;;;4.00;78.56;99340.53;5030496;28;20440;-62
2022/01/18 11:43:41;;;;;;;21.50;8.85;;;;;;;4.19;78.52;99336.75;5030225;28;20063;-62
2022/01/18 11:46:31;;;;;;;15.27;7.85;;;;;;;4.10;78.79;99337.72;5021011;28;20512;-62
2022/01/18 11:49:03;;;;;;;16.38;6.97;;;;;;;4.24;78.07;99341.63;5039227;28;20076;-62
2022/01/18 11:51:48;;;;;;;12.40;6.90;;;;;;;4.58;76.06;99338.06;5031136;28;20125;-64
2022/01/18 11:54:29;;;;;;;13.35;6.38;;;;;;;4.76;74.76;99335.22;5042202;28;20048;-64
2022/01/18 11:56:56;;;;;;;20.27;9.73;;;;;;;4.40;76.76;99333.66;5026490;28;20475;-65
2022/01/18 11:59:26;;;;;;;11.68;5.50;;;;;;;4.52;76.03;99331.50;5023573;28;20103;-62
2022/01/18 12:01:58;;;;;;;10.07;5.40;;;;;;;4.46;75.92;99321.41;5023054;28;20045;-62
2022/01/18 12:04:54;;;;;;;13.23;6.60;;;;;;;4.32;75.71;99319.34;5026579;28;20049;-63
2022/01/18 12:07:33;;;;;;;11.35;6.13;;;;;;;4.47;74.96;99315.06;5019774;28;20859;-61
2022/01/18 12:10:08;;;;;;;13.93;5.72;;;;;;;4.29;76.59;99320.53;5024897;28;20413;-61
2022/01/18 12:12:41;;;;;;;14.98;5.80;;;;;;;4.31;76.52;99318.50;5026510;28;20046;-63
2022/01/18 12:15:20;;;;;;;13.85;6.55;;;;;;;4.51;75.35;99316.41;5020570;28;20042;-65
2022/01/18 12:17:56;;;;;;;14.77;6.45;;;;;;;4.52;75.62;99303.81;5024266;28;20047;-63
2022/01/18 12:20:40;;;;;;;14.18;6.15;;;;;;;4.53;74.99;99305.47;5024310;28;20045;-62
2022/01/18 12:23:12;;;;;;;16.35;5.90;;;;;;;4.51;75.28;99313.72;5023536;28;20046;-61
2022/01/18 12:26:01;;;;;;;12.05;5.63;;;;;;;4.68;75.24;99301.16;5023656;28;20053;-62
2022/01/18 12:28:55;;;;;;;12.68;5.43;;;;;;;4.73;75.01;99305.19;5022803;28;20044;-62
2022/01/18 12:34:28;;;;;;;12.43;5.43;;;;;;;4.46;74.82;99310.66;5023015;28;20512;-64
2022/01/18 12:37:14;;;;;;;11.45;5.95;;;;;;;4.25;76.54;99303.94;5024961;28;20483;-65
2022/01/18 12:39:49;;;;;;;15.02;7.55;;;;;;;4.10;77.37;99305.56;5040087;28;20053;-61
2022/01/18 12:45:16;;;;;;;10.90;5.70;;;;;;;3.95;77.80;99303.50;5023021;28;20037;-61
2022/01/18 12:47:54;;;;;;;10.00;5.28;;;;;;;3.79;78.58;99295.38;5025106;28;20116;-63
2022/01/18 12:50:23;;;;;;;16.55;9.05;;;;;;;3.68;78.28;99297.31;5023854;28;20042;-64
2022/01/18 12:53:11;;;;;;;22.40;10.70;;;;;;;3.68;79.05;99297.31;5025276;28;20046;-62
2022/01/18 12:55:43;;;;;;;15.35;6.80;;;;;;;3.72;78.64;99301.34;5024526;28;20520;-62
2022/01/18 12:58:21;;;;;;;11.68;6.13;;;;;;;3.76;78.91;99294.69;5025853;28;20041;-64
2022/01/18 13:00:50;;;;;;;13.68;6.70;;;;;;;3.84;78.70;99298.41;5031216;28;20099;-62